createdAt,value
2023-03-16T00:00:19.498Z,5.93
2023-03-16T00:01:19.455Z,5.89
2023-03-16T00:02:19.707Z,5.87
2023-03-16T00:03:19.627Z,5.88
2023-03-16T00:04:19.467Z,5.90
2023-03-16T00:05:19.506Z,5.91
2023-03-16T00:06:19.477Z,5.89
2023-03-16T00:07:19.517Z,5.87
2023-03-16T00:08:19.509Z,5.85
2023-03-16T00:10:19.556Z,5.84
2023-03-16T00:11:19.473Z,5.82
2023-03-16T00:12:19.553Z,5.80
2023-03-16T00:13:19.514Z,5.75
2023-03-16T00:14:19.516Z,5.72
2023-03-16T00:15:19.562Z,5.71
2023-03-16T00:16:19.536Z,5.69
2023-03-16T00:17:19.734Z,5.66
2023-03-16T00:18:19.557Z,5.65
2023-03-16T00:19:19.525Z,5.68
2023-03-16T00:20:19.534Z,5.69
2023-03-16T00:22:19.522Z,5.71
2023-03-16T00:23:19.505Z,5.74
2023-03-16T00:24:19.541Z,5.75
2023-03-16T00:26:19.513Z,5.70
2023-03-16T00:27:19.538Z,5.67
2023-03-16T00:28:19.528Z,5.65
2023-03-16T00:29:19.533Z,5.62
2023-03-16T00:31:19.572Z,5.59
2023-03-16T00:32:19.550Z,5.58
2023-03-16T00:33:19.582Z,5.55
2023-03-16T00:34:19.579Z,5.56
2023-03-16T00:35:19.540Z,5.53
2023-03-16T00:36:19.585Z,5.52
2023-03-16T00:37:19.644Z,5.51
2023-03-16T00:39:19.532Z,5.52
2023-03-16T00:41:19.584Z,5.54
2023-03-16T00:42:19.582Z,5.52
2023-03-16T00:43:19.587Z,5.51
2023-03-16T00:44:19.584Z,5.49
2023-03-16T00:45:19.633Z,5.47
2023-03-16T00:46:19.676Z,5.46
2023-03-16T00:47:19.572Z,5.44
2023-03-16T00:48:19.569Z,5.42
2023-03-16T00:50:19.604Z,5.41
2023-03-16T00:51:19.650Z,5.42
2023-03-16T00:53:19.571Z,5.41
2023-03-16T00:56:19.623Z,5.40
2023-03-16T00:57:19.623Z,5.37
2023-03-16T00:58:19.626Z,5.36
2023-03-16T00:59:19.630Z,5.35
2023-03-16T01:00:19.630Z,5.36
2023-03-16T01:01:19.689Z,5.37
2023-03-16T01:02:19.587Z,5.36
2023-03-16T01:03:19.691Z,5.37
2023-03-16T01:04:19.692Z,5.39
2023-03-16T01:05:19.599Z,5.41
2023-03-16T01:06:19.617Z,5.43
2023-03-16T01:08:19.615Z,5.42
2023-03-16T01:09:19.608Z,5.40
2023-03-16T01:10:19.647Z,5.39
2023-03-16T01:11:19.603Z,5.40
2023-03-16T01:14:19.624Z,5.39
2023-03-16T01:15:19.711Z,5.37
2023-03-16T01:16:19.730Z,5.34
2023-03-16T01:17:19.628Z,5.31
2023-03-16T01:19:19.678Z,5.28
2023-03-16T01:20:19.712Z,5.29
2023-03-16T01:21:19.659Z,5.28
2023-03-16T01:22:19.686Z,5.25
2023-03-16T01:23:19.676Z,5.23
2023-03-16T01:24:19.672Z,5.19
2023-03-16T01:25:19.712Z,5.20
2023-03-16T01:26:19.669Z,5.19
2023-03-16T01:27:19.660Z,5.17
2023-03-16T01:28:19.695Z,5.14
2023-03-16T01:29:19.652Z,5.15
2023-03-16T01:31:19.708Z,5.16
2023-03-16T01:32:19.695Z,5.15
2023-03-16T01:33:19.703Z,5.14
2023-03-16T01:34:19.670Z,5.12
2023-03-16T01:35:19.706Z,5.09
2023-03-16T01:36:19.707Z,4.97
2023-03-16T01:37:19.698Z,4.94
2023-03-16T01:38:19.770Z,4.89
2023-03-16T01:39:19.688Z,4.87
2023-03-16T01:40:19.686Z,4.86
2023-03-16T01:41:19.719Z,4.85
2023-03-16T01:42:19.710Z,4.88
2023-03-16T01:43:19.736Z,4.87
2023-03-16T01:44:19.696Z,4.86
2023-03-16T01:46:19.879Z,4.84
2023-03-16T01:47:19.754Z,4.85
2023-03-16T01:48:19.692Z,4.86
2023-03-16T01:50:19.709Z,4.87
2023-03-16T01:52:19.725Z,4.90
2023-03-16T01:53:19.734Z,4.93
2023-03-16T01:54:19.748Z,4.94
2023-03-16T01:55:19.761Z,4.93
2023-03-16T01:56:19.794Z,4.94
2023-03-16T01:57:19.759Z,4.93
2023-03-16T01:58:19.742Z,4.91
2023-03-16T02:00:19.901Z,4.92
2023-03-16T02:01:19.842Z,4.93
2023-03-16T02:02:19.768Z,4.91
2023-03-16T02:04:19.766Z,4.92
2023-03-16T02:06:19.786Z,4.89
2023-03-16T02:07:19.750Z,4.87
2023-03-16T02:09:19.806Z,4.86
2023-03-16T02:10:19.766Z,4.85
2023-03-16T02:11:19.765Z,4.84
2023-03-16T02:12:19.759Z,4.83
2023-03-16T02:13:19.757Z,4.81
2023-03-16T02:16:19.995Z,4.80
2023-03-16T02:17:19.804Z,4.78
2023-03-16T02:18:19.775Z,4.80
2023-03-16T02:19:19.822Z,4.79
2023-03-16T02:20:19.789Z,4.78
2023-03-16T02:22:19.802Z,4.77
2023-03-16T02:23:19.815Z,4.78
2023-03-16T02:24:19.860Z,4.75
2023-03-16T02:25:19.828Z,4.73
2023-03-16T02:27:19.840Z,4.69
2023-03-16T02:28:19.821Z,4.65
2023-03-16T02:29:19.879Z,4.60
2023-03-16T02:30:19.850Z,4.58
2023-03-16T02:31:19.910Z,4.59
2023-03-16T02:32:19.824Z,4.58
2023-03-16T02:34:20.022Z,4.56
2023-03-16T02:36:19.864Z,4.59
2023-03-16T02:37:19.859Z,4.61
2023-03-16T02:38:19.825Z,4.59
2023-03-16T02:39:19.810Z,4.58
2023-03-16T02:40:19.834Z,4.56
2023-03-16T02:42:19.896Z,4.54
2023-03-16T02:43:19.834Z,4.56
2023-03-16T02:44:19.893Z,4.58
2023-03-16T02:45:19.843Z,4.55
2023-03-16T02:46:19.878Z,4.56
2023-03-16T02:49:19.845Z,4.55
2023-03-16T02:51:19.865Z,4.57
2023-03-16T02:52:19.909Z,4.56
2023-03-16T02:54:19.865Z,4.55
2023-03-16T02:56:19.881Z,4.56
2023-03-16T02:57:19.903Z,4.53
2023-03-16T02:58:19.864Z,4.50
2023-03-16T02:59:19.874Z,4.48
2023-03-16T03:00:19.890Z,4.45
2023-03-16T03:01:19.871Z,4.43
2023-03-16T03:02:19.973Z,4.42
2023-03-16T03:03:19.979Z,4.40
2023-03-16T03:06:19.907Z,4.39
2023-03-16T03:07:19.938Z,4.41
2023-03-16T03:08:19.924Z,4.40
2023-03-16T03:10:19.945Z,4.39
2023-03-16T03:11:19.946Z,4.40
2023-03-16T03:12:20.005Z,4.38
2023-03-16T03:13:19.900Z,4.39
2023-03-16T03:14:19.904Z,4.40
2023-03-16T03:16:19.973Z,4.39
2023-03-16T03:18:19.959Z,4.38
2023-03-16T03:19:19.915Z,4.39
2023-03-16T03:20:19.984Z,4.37
2023-03-16T03:25:19.953Z,4.36
2023-03-16T03:26:19.950Z,4.37
2023-03-16T03:27:20.012Z,4.36
2023-03-16T03:28:19.946Z,4.37
2023-03-16T03:30:19.968Z,4.36
2023-03-16T03:31:20.073Z,4.32
2023-03-16T03:32:19.996Z,4.28
2023-03-16T03:33:19.952Z,4.25
2023-03-16T03:34:19.958Z,4.24
2023-03-16T03:36:20.016Z,4.23
2023-03-16T03:37:20.031Z,4.22
2023-03-16T03:38:19.961Z,4.23
2023-03-16T03:39:19.974Z,4.25
2023-03-16T03:40:19.970Z,4.26
2023-03-16T03:41:19.966Z,4.24
2023-03-16T03:42:20.020Z,4.27
2023-03-16T03:43:20.043Z,4.26
2023-03-16T03:47:20.022Z,4.24
2023-03-16T03:50:20.109Z,4.25
2023-03-16T03:51:20.078Z,4.26
2023-03-16T03:53:20.014Z,4.27
2023-03-16T03:54:20.024Z,4.26
2023-03-16T03:57:21.875Z,4.23
2023-03-16T03:58:20.054Z,4.18
2023-03-16T03:59:20.035Z,4.17
2023-03-16T04:00:20.045Z,4.15
2023-03-16T04:01:20.054Z,4.11
2023-03-16T04:02:20.135Z,4.08
2023-03-16T04:03:20.121Z,4.03
2023-03-16T04:04:20.055Z,4.00
2023-03-16T04:05:20.122Z,3.98
2023-03-16T04:06:20.068Z,3.94
2023-03-16T04:07:20.137Z,3.92
2023-03-16T04:08:20.059Z,3.90
2023-03-16T04:09:20.094Z,3.84
2023-03-16T04:10:20.095Z,3.82
2023-03-16T04:11:20.117Z,3.85
2023-03-16T04:12:20.117Z,3.88
2023-03-16T04:14:20.137Z,3.87
2023-03-16T04:16:20.157Z,3.84
2023-03-16T04:17:20.066Z,3.83
2023-03-16T04:18:20.063Z,3.85
2023-03-16T04:20:20.192Z,3.86
2023-03-16T04:21:20.082Z,3.88
2023-03-16T04:22:20.095Z,3.89
2023-03-16T04:23:20.243Z,3.88
2023-03-16T04:24:20.092Z,3.90
2023-03-16T04:25:20.161Z,3.89
2023-03-16T04:26:20.106Z,3.90
2023-03-16T04:29:20.235Z,3.87
2023-03-16T04:30:20.182Z,3.86
2023-03-16T04:31:20.204Z,3.84
2023-03-16T04:33:20.237Z,3.82
2023-03-16T04:34:20.115Z,3.80
2023-03-16T04:35:20.269Z,3.78
2023-03-16T04:36:20.144Z,3.80
2023-03-16T04:37:20.121Z,3.83
2023-03-16T04:39:20.109Z,3.85
2023-03-16T04:40:20.121Z,3.83
2023-03-16T04:41:20.128Z,3.84
2023-03-16T04:42:20.134Z,3.82
2023-03-16T04:43:20.197Z,3.83
2023-03-16T04:44:20.166Z,3.82
2023-03-16T04:45:20.139Z,3.80
2023-03-16T04:46:20.224Z,3.77
2023-03-16T04:48:20.151Z,3.78
2023-03-16T04:50:20.139Z,3.80
2023-03-16T04:51:20.188Z,3.79
2023-03-16T04:52:20.150Z,3.74
2023-03-16T04:53:20.180Z,3.75
2023-03-16T04:54:20.172Z,3.77
2023-03-16T04:55:20.162Z,3.75
2023-03-16T04:56:20.212Z,3.73
2023-03-16T04:57:20.163Z,3.71
2023-03-16T04:58:20.168Z,3.69
2023-03-16T04:59:20.217Z,3.67
2023-03-16T05:00:20.169Z,3.66
2023-03-16T05:02:20.170Z,3.64
2023-03-16T05:03:20.171Z,3.63
2023-03-16T05:04:20.197Z,3.61
2023-03-16T05:05:20.191Z,3.60
2023-03-16T05:06:20.181Z,3.57
2023-03-16T05:09:20.213Z,3.58
2023-03-16T05:11:20.242Z,3.59
2023-03-16T05:12:20.183Z,3.58
2023-03-16T05:14:20.222Z,3.59
2023-03-16T05:15:20.203Z,3.61
2023-03-16T05:17:20.228Z,3.62
2023-03-16T05:18:20.255Z,3.65
2023-03-16T05:19:20.274Z,3.67
2023-03-16T05:21:20.252Z,3.65
2023-03-16T05:22:20.244Z,3.62
2023-03-16T05:23:20.284Z,3.60
2023-03-16T05:25:20.212Z,3.61
2023-03-16T05:26:20.219Z,3.62
2023-03-16T05:27:20.265Z,3.65
2023-03-16T05:28:20.236Z,3.66
2023-03-16T05:29:20.247Z,3.65
2023-03-16T05:30:20.246Z,3.63
2023-03-16T05:31:20.275Z,3.62
2023-03-16T05:32:20.284Z,3.61
2023-03-16T05:33:20.248Z,3.60
2023-03-16T05:35:22.042Z,3.59
2023-03-16T05:36:20.244Z,3.55
2023-03-16T05:37:20.318Z,3.56
2023-03-16T05:38:20.264Z,3.55
2023-03-16T05:39:20.297Z,3.56
2023-03-16T05:40:20.272Z,3.57
2023-03-16T05:41:20.257Z,3.60
2023-03-16T05:42:20.329Z,3.62
2023-03-16T05:43:20.289Z,3.64
2023-03-16T05:44:20.276Z,3.66
2023-03-16T05:45:20.309Z,3.70
2023-03-16T05:46:20.916Z,3.72
2023-03-16T05:47:20.302Z,3.73
2023-03-16T05:49:20.313Z,3.74
2023-03-16T05:50:20.387Z,3.75
2023-03-16T05:51:20.316Z,3.74
2023-03-16T05:52:20.339Z,3.73
2023-03-16T05:53:20.338Z,3.74
2023-03-16T05:56:20.319Z,3.76
2023-03-16T05:57:20.304Z,3.79
2023-03-16T05:58:20.301Z,3.81
2023-03-16T05:59:20.301Z,3.83
2023-03-16T06:02:20.347Z,3.86
2023-03-16T06:03:20.318Z,3.88
2023-03-16T06:04:20.471Z,3.91
2023-03-16T06:05:20.371Z,3.94
2023-03-16T06:06:20.327Z,3.95
2023-03-16T06:08:20.372Z,3.97
2023-03-16T06:09:20.373Z,3.98
2023-03-16T06:10:20.367Z,4.00
2023-03-16T06:11:20.373Z,4.03
2023-03-16T06:12:20.368Z,4.06
2023-03-16T06:13:20.411Z,4.09
2023-03-16T06:14:20.381Z,4.12
2023-03-16T06:15:20.349Z,4.19
2023-03-16T06:16:20.370Z,4.23
2023-03-16T06:17:20.356Z,4.25
2023-03-16T06:18:20.362Z,4.29
2023-03-16T06:19:20.352Z,4.36
2023-03-16T06:20:20.395Z,4.44
2023-03-16T06:21:20.392Z,4.51
2023-03-16T06:22:20.705Z,4.59
2023-03-16T06:23:20.405Z,4.67
2023-03-16T06:24:20.369Z,4.76
2023-03-16T06:25:20.414Z,4.85
2023-03-16T06:26:20.418Z,4.95
2023-03-16T06:27:20.397Z,5.05
2023-03-16T06:28:20.454Z,5.15
2023-03-16T06:29:20.389Z,5.25
2023-03-16T06:30:20.424Z,5.39
2023-03-16T06:31:20.440Z,5.54
2023-03-16T06:32:20.392Z,5.68
2023-03-16T06:33:20.404Z,5.82
2023-03-16T06:34:20.415Z,5.97
2023-03-16T06:35:20.442Z,6.21
2023-03-16T06:36:20.402Z,6.53
2023-03-16T06:37:20.447Z,7.04
2023-03-16T06:38:20.487Z,7.78
2023-03-16T06:39:20.452Z,8.58
2023-03-16T06:40:20.434Z,9.34
2023-03-16T06:41:20.464Z,10.12
2023-03-16T06:42:20.431Z,10.86
2023-03-16T06:43:20.454Z,11.58
2023-03-16T06:44:20.411Z,12.32
2023-03-16T06:45:20.429Z,13.03
2023-03-16T06:46:20.522Z,13.79
2023-03-16T06:47:20.472Z,14.46
2023-03-16T06:48:20.480Z,15.12
2023-03-16T06:49:20.481Z,15.62
2023-03-16T06:50:20.477Z,16.21
2023-03-16T06:51:20.465Z,16.82
2023-03-16T06:52:20.447Z,17.40
2023-03-16T06:53:20.493Z,17.97
2023-03-16T06:54:20.464Z,18.50
2023-03-16T06:55:20.496Z,19.00
2023-03-16T06:56:20.483Z,19.54
2023-03-16T06:57:20.470Z,19.99
2023-03-16T06:58:20.496Z,20.44
2023-03-16T06:59:20.463Z,20.82
2023-03-16T07:00:20.469Z,21.17
2023-03-16T07:01:20.532Z,21.51
2023-03-16T07:02:20.499Z,21.74
2023-03-16T07:03:20.506Z,21.85
2023-03-16T07:04:20.608Z,22.03
2023-03-16T07:05:20.523Z,22.30
2023-03-16T07:06:20.460Z,22.58
2023-03-16T07:07:20.473Z,22.59
2023-03-16T07:08:20.483Z,22.75
2023-03-16T07:09:20.478Z,22.88
2023-03-16T07:10:20.543Z,22.94
2023-03-16T07:11:20.493Z,23.14
2023-03-16T07:12:20.520Z,23.39
2023-03-16T07:13:20.502Z,23.58
2023-03-16T07:14:20.549Z,23.79
2023-03-16T07:15:20.496Z,24.05
2023-03-16T07:16:20.592Z,24.29
2023-03-16T07:17:20.527Z,24.54
2023-03-16T07:18:20.544Z,24.73
2023-03-16T07:19:20.498Z,25.08
2023-03-16T07:20:22.899Z,25.29
2023-03-16T07:21:20.512Z,25.57
2023-03-16T07:22:20.547Z,25.74
2023-03-16T07:23:20.530Z,25.85
2023-03-16T07:24:20.501Z,25.73
2023-03-16T07:25:20.548Z,25.69
2023-03-16T07:26:20.558Z,25.79
2023-03-16T07:27:20.551Z,26.03
2023-03-16T07:28:20.571Z,26.27
2023-03-16T07:29:20.580Z,26.50
2023-03-16T07:30:20.614Z,26.62
2023-03-16T07:31:20.637Z,26.83
2023-03-16T07:32:20.572Z,26.99
2023-03-16T07:33:20.583Z,27.15
2023-03-16T07:34:20.533Z,27.24
2023-03-16T07:35:20.543Z,27.51
2023-03-16T07:36:20.724Z,27.69
2023-03-16T07:37:25.496Z,27.81
2023-03-16T07:38:20.558Z,27.94
2023-03-16T07:39:20.602Z,27.93
2023-03-16T07:40:20.621Z,27.95
2023-03-16T07:41:20.594Z,27.96
2023-03-16T07:42:20.565Z,28.09
2023-03-16T07:43:20.608Z,28.20
2023-03-16T07:44:20.591Z,28.29
2023-03-16T07:45:20.571Z,28.40
2023-03-16T07:46:20.630Z,28.53
2023-03-16T07:47:20.612Z,28.63
2023-03-16T07:48:20.610Z,28.56
2023-03-16T07:49:20.582Z,28.66
2023-03-16T07:50:20.612Z,28.79
2023-03-16T07:51:20.599Z,28.72
2023-03-16T07:52:20.569Z,28.90
2023-03-16T07:53:20.571Z,29.05
2023-03-16T07:54:20.585Z,29.16
2023-03-16T07:55:20.589Z,29.28
2023-03-16T07:56:20.596Z,29.27
2023-03-16T07:57:20.598Z,29.34
2023-03-16T07:58:20.648Z,29.32
2023-03-16T07:59:21.057Z,29.29
2023-03-16T08:00:20.656Z,29.24
2023-03-16T08:01:20.604Z,29.21
2023-03-16T08:02:20.676Z,29.27
2023-03-16T08:03:20.706Z,29.40
2023-03-16T08:04:20.620Z,29.51
2023-03-16T08:05:20.652Z,29.39
2023-03-16T08:06:20.636Z,29.19
2023-03-16T08:07:20.691Z,29.22
2023-03-16T08:08:20.697Z,29.12
2023-03-16T08:09:20.620Z,29.31
2023-03-16T08:10:20.663Z,29.28
2023-03-16T08:11:20.683Z,29.15
2023-03-16T08:12:20.672Z,28.98
2023-03-16T08:13:20.713Z,28.40
2023-03-16T08:14:20.728Z,27.23
2023-03-16T08:15:20.685Z,26.91
2023-03-16T08:16:22.063Z,26.67
2023-03-16T08:17:20.642Z,25.67
2023-03-16T08:18:20.650Z,24.74
2023-03-16T08:19:20.694Z,24.00
2023-03-16T08:20:20.701Z,23.34
2023-03-16T08:21:20.744Z,22.84
2023-03-16T08:22:20.697Z,22.25
2023-03-16T08:23:20.717Z,21.98
2023-03-16T08:24:20.704Z,21.96
2023-03-16T08:25:20.738Z,22.15
2023-03-16T08:26:20.749Z,22.96
2023-03-16T08:27:20.696Z,24.01
2023-03-16T08:28:20.700Z,24.23
2023-03-16T08:29:20.747Z,25.05
2023-03-16T08:30:20.695Z,25.83
2023-03-16T08:31:20.725Z,26.64
2023-03-16T08:32:20.691Z,27.33
2023-03-16T08:33:23.027Z,27.86
2023-03-16T08:34:20.723Z,28.20
2023-03-16T08:35:20.757Z,28.29
2023-03-16T08:36:20.743Z,28.02
2023-03-16T08:37:20.721Z,27.55
2023-03-16T08:38:20.696Z,27.48
2023-03-16T08:39:20.748Z,27.66
2023-03-16T08:40:20.718Z,27.83
2023-03-16T08:41:20.725Z,27.85
2023-03-16T08:42:20.787Z,27.98
2023-03-16T08:43:20.726Z,27.83
2023-03-16T08:44:20.769Z,27.65
2023-03-16T08:45:20.854Z,27.66
2023-03-16T08:46:20.814Z,27.62
2023-03-16T08:47:20.796Z,27.85
2023-03-16T08:48:20.764Z,27.99
2023-03-16T08:49:20.728Z,28.21
2023-03-16T08:50:20.738Z,28.32
2023-03-16T08:51:20.794Z,28.20
2023-03-16T08:52:20.822Z,28.32
2023-03-16T08:53:20.740Z,28.67
2023-03-16T08:54:20.767Z,29.08
2023-03-16T08:55:20.747Z,29.18
2023-03-16T08:57:20.793Z,28.92
2023-03-16T08:58:20.797Z,28.70
2023-03-16T08:59:29.782Z,29.16
2023-03-16T09:00:20.846Z,29.30
2023-03-16T09:01:20.844Z,29.46
2023-03-16T09:02:20.808Z,29.80
2023-03-16T09:03:20.803Z,29.84
2023-03-16T09:04:20.873Z,29.89
2023-03-16T09:05:20.809Z,30.20
2023-03-16T09:06:20.818Z,30.21
2023-03-16T09:07:20.876Z,30.00
2023-03-16T09:08:21.006Z,29.75
2023-03-16T09:09:20.788Z,29.50
2023-03-16T09:10:20.783Z,29.21
2023-03-16T09:11:20.825Z,28.77
2023-03-16T09:12:20.828Z,28.60
2023-03-16T09:13:20.868Z,28.58
2023-03-16T09:14:20.802Z,28.55
2023-03-16T09:15:20.843Z,28.80
2023-03-16T09:16:21.008Z,29.09
2023-03-16T09:17:20.805Z,29.26
2023-03-16T09:18:20.847Z,29.29
2023-03-16T09:19:20.807Z,29.41
2023-03-16T09:20:26.189Z,29.18
2023-03-16T09:21:20.850Z,28.97
2023-03-16T09:22:20.847Z,28.96
2023-03-16T09:23:20.861Z,28.79
2023-03-16T09:24:20.855Z,29.02
2023-03-16T09:25:20.868Z,29.26
2023-03-16T09:26:20.867Z,29.29
2023-03-16T09:27:21.023Z,29.07
2023-03-16T09:28:22.110Z,29.24
2023-03-16T09:29:20.829Z,28.92
2023-03-16T09:30:20.853Z,28.40
2023-03-16T09:31:20.893Z,28.36
2023-03-16T09:32:20.864Z,28.38
2023-03-16T09:33:20.843Z,28.19
2023-03-16T09:34:20.868Z,28.08
2023-03-16T09:35:20.866Z,28.24
2023-03-16T09:36:21.017Z,28.48
2023-03-16T09:37:22.082Z,28.68
2023-03-16T09:38:20.918Z,28.79
2023-03-16T09:39:20.857Z,28.83
2023-03-16T09:40:20.877Z,28.59
2023-03-16T09:41:20.893Z,28.19
2023-03-16T09:42:20.911Z,27.82
2023-03-16T09:43:20.865Z,27.25
2023-03-16T09:44:20.895Z,26.43
2023-03-16T09:45:20.881Z,25.51
2023-03-16T09:46:20.959Z,24.44
2023-03-16T09:47:20.893Z,23.51
2023-03-16T09:48:20.917Z,22.91
2023-03-16T09:49:20.890Z,22.03
2023-03-16T09:50:20.897Z,21.19
2023-03-16T09:51:21.038Z,20.59
2023-03-16T09:52:20.899Z,20.21
2023-03-16T09:53:20.915Z,20.07
2023-03-16T09:54:20.922Z,20.09
2023-03-16T09:55:20.908Z,20.17
2023-03-16T09:56:20.919Z,19.95
2023-03-16T09:57:20.963Z,19.78
2023-03-16T09:58:20.904Z,19.74
2023-03-16T09:59:20.995Z,19.70
2023-03-16T10:00:20.965Z,19.66
2023-03-16T10:01:21.044Z,19.58
2023-03-16T10:02:20.952Z,19.59
2023-03-16T10:03:20.963Z,19.62
2023-03-16T10:04:21.014Z,19.60
2023-03-16T10:05:20.954Z,19.65
2023-03-16T10:06:20.964Z,19.68
2023-03-16T10:07:20.967Z,19.76
2023-03-16T10:08:20.971Z,19.71
2023-03-16T10:09:20.968Z,19.68
2023-03-16T10:10:20.968Z,19.74
2023-03-16T10:11:20.988Z,19.82
2023-03-16T10:12:21.084Z,19.87
2023-03-16T10:13:22.119Z,19.94
2023-03-16T10:14:20.989Z,19.97
2023-03-16T10:15:21.068Z,20.01
2023-03-16T10:16:21.058Z,20.09
2023-03-16T10:17:21.229Z,20.10
2023-03-16T10:18:20.977Z,20.00
2023-03-16T10:19:20.997Z,19.78
2023-03-16T10:20:20.995Z,19.36
2023-03-16T10:21:20.972Z,18.92
2023-03-16T10:22:21.051Z,18.59
2023-03-16T10:23:20.997Z,18.40
2023-03-16T10:24:20.984Z,18.33
2023-03-16T10:25:21.023Z,18.35
2023-03-16T10:27:21.045Z,18.34
2023-03-16T10:28:21.052Z,18.18
2023-03-16T10:29:21.004Z,18.10
2023-03-16T10:30:21.061Z,17.98
2023-03-16T10:31:21.076Z,17.94
2023-03-16T10:33:21.041Z,18.01
2023-03-16T10:34:21.026Z,18.09
2023-03-16T10:35:21.050Z,18.16
2023-03-16T10:36:21.020Z,18.25
2023-03-16T10:37:21.057Z,18.24
2023-03-16T10:38:21.047Z,18.21
2023-03-16T10:39:21.033Z,18.17
2023-03-16T10:40:21.140Z,18.19
2023-03-16T10:41:21.066Z,18.25
2023-03-16T10:42:21.112Z,18.32
2023-03-16T10:43:21.087Z,18.36
2023-03-16T10:44:21.028Z,18.37
2023-03-16T10:45:21.077Z,18.32
2023-03-16T10:46:21.107Z,18.26
2023-03-16T10:47:21.228Z,18.21
2023-03-16T10:49:21.082Z,18.10
2023-03-16T10:50:21.194Z,18.04
2023-03-16T10:51:21.063Z,17.96
2023-03-16T10:52:21.082Z,17.89
2023-03-16T10:53:21.207Z,17.84
2023-03-16T10:54:21.070Z,17.72
2023-03-16T10:55:21.083Z,17.69
2023-03-16T10:56:21.108Z,17.76
2023-03-16T10:57:21.098Z,17.65
2023-03-16T10:58:21.064Z,17.62
2023-03-16T10:59:21.075Z,17.40
2023-03-16T11:00:21.139Z,17.18
2023-03-16T11:01:21.128Z,17.10
2023-03-16T11:03:21.087Z,17.17
2023-03-16T11:04:21.221Z,17.16
2023-03-16T11:05:21.115Z,17.12
2023-03-16T11:06:21.100Z,17.04
2023-03-16T11:07:21.148Z,16.97
2023-03-16T11:08:21.097Z,16.83
2023-03-16T11:09:21.095Z,16.85
2023-03-16T11:10:21.138Z,16.92
2023-03-16T11:11:21.104Z,17.02
2023-03-16T11:12:21.115Z,17.11
2023-03-16T11:13:21.170Z,17.20
2023-03-16T11:14:21.119Z,17.00
2023-03-16T11:15:25.822Z,16.88
2023-03-16T11:18:21.201Z,16.90
2023-03-16T11:19:21.150Z,16.92
2023-03-16T11:20:21.161Z,16.86
2023-03-16T11:21:21.171Z,16.83
2023-03-16T11:22:21.161Z,16.87
2023-03-16T11:23:21.215Z,16.97
2023-03-16T11:24:21.180Z,17.15
2023-03-16T11:25:21.148Z,17.32
2023-03-16T11:26:21.198Z,17.44
2023-03-16T11:27:21.199Z,17.50
2023-03-16T11:28:21.139Z,17.53
2023-03-16T11:29:21.192Z,17.46
2023-03-16T11:30:21.195Z,17.33
2023-03-16T11:31:21.221Z,17.26
2023-03-16T11:32:21.188Z,17.23
2023-03-16T11:33:21.161Z,17.30
2023-03-16T11:34:21.189Z,17.40
2023-03-16T11:35:21.200Z,17.50
2023-03-16T11:36:21.306Z,17.62
2023-03-16T11:37:21.181Z,17.68
2023-03-16T11:38:21.236Z,17.54
2023-03-16T11:39:21.170Z,17.39
2023-03-16T11:40:21.197Z,17.38
2023-03-16T11:41:21.231Z,17.36
2023-03-16T11:42:21.223Z,17.40
2023-03-16T11:43:21.194Z,17.37
2023-03-16T11:44:21.196Z,17.38
2023-03-16T11:45:21.218Z,17.43
2023-03-16T11:46:21.384Z,17.46
2023-03-16T11:47:21.204Z,17.43
2023-03-16T11:48:21.266Z,17.41
2023-03-16T11:49:21.287Z,17.44
2023-03-16T11:50:21.236Z,17.45
2023-03-16T11:51:21.251Z,17.46
2023-03-16T11:52:21.256Z,17.44
2023-03-16T11:53:21.252Z,17.43
2023-03-16T11:54:21.211Z,17.46
2023-03-16T11:55:21.211Z,17.50
2023-03-16T11:56:21.261Z,17.53
2023-03-16T11:57:21.213Z,17.55
2023-03-16T11:58:21.260Z,17.53
2023-03-16T11:59:21.234Z,17.46
2023-03-16T12:00:21.314Z,17.36
2023-03-16T12:01:21.325Z,17.31
2023-03-16T12:02:21.384Z,17.28
2023-03-16T12:03:21.280Z,17.10
2023-03-16T12:04:21.272Z,16.96
2023-03-16T12:05:21.246Z,16.85
2023-03-16T12:06:23.459Z,16.79
2023-03-16T12:07:21.270Z,16.69
2023-03-16T12:08:21.238Z,16.64
2023-03-16T12:09:21.279Z,16.63
2023-03-16T12:11:21.299Z,16.68
2023-03-16T12:12:21.253Z,16.78
2023-03-16T12:13:21.248Z,16.89
2023-03-16T12:14:21.272Z,17.02
2023-03-16T12:15:21.338Z,17.13
2023-03-16T12:16:21.352Z,17.22
2023-03-16T12:17:21.312Z,17.35
2023-03-16T12:18:21.404Z,17.47
2023-03-16T12:19:21.301Z,17.56
2023-03-16T12:20:21.309Z,17.64
2023-03-16T12:21:21.275Z,17.69
2023-03-16T12:22:21.294Z,17.75
2023-03-16T12:24:21.312Z,17.77
2023-03-16T12:25:21.327Z,17.65
2023-03-16T12:26:21.326Z,17.48
2023-03-16T12:27:21.322Z,17.32
2023-03-16T12:28:21.337Z,17.25
2023-03-16T12:29:21.323Z,17.21
2023-03-16T12:30:21.346Z,17.22
2023-03-16T12:31:21.357Z,17.27
2023-03-16T12:32:21.355Z,17.16
2023-03-16T12:33:21.412Z,17.11
2023-03-16T12:34:21.393Z,17.04
2023-03-16T12:36:21.331Z,17.02
2023-03-16T12:37:21.315Z,17.03
2023-03-16T12:39:21.318Z,17.10
2023-03-16T12:40:21.360Z,17.16
2023-03-16T12:41:21.356Z,17.26
2023-03-16T12:42:21.350Z,17.34
2023-03-16T12:43:21.386Z,17.40
2023-03-16T12:44:21.487Z,17.47
2023-03-16T12:45:21.352Z,17.50
2023-03-16T12:46:21.463Z,17.55
2023-03-16T12:47:21.330Z,17.60
2023-03-16T12:48:21.399Z,17.65
2023-03-16T12:49:21.335Z,17.69
2023-03-16T12:50:21.355Z,17.75
2023-03-16T12:51:21.390Z,17.70
2023-03-16T12:52:21.371Z,17.54
2023-03-16T12:53:21.351Z,17.50
2023-03-16T12:54:21.448Z,17.49
2023-03-16T12:56:21.368Z,17.53
2023-03-16T12:57:21.409Z,17.58
2023-03-16T12:58:21.423Z,17.60
2023-03-16T12:59:21.432Z,17.58
2023-03-16T13:00:21.406Z,17.56
2023-03-16T13:01:21.526Z,17.58
2023-03-16T13:02:21.359Z,17.54
2023-03-16T13:03:21.473Z,17.53
2023-03-16T13:04:21.575Z,17.55
2023-03-16T13:05:21.389Z,17.53
2023-03-16T13:06:21.397Z,17.51
2023-03-16T13:08:21.440Z,17.53
2023-03-16T13:09:21.474Z,17.50
2023-03-16T13:10:21.429Z,17.43
2023-03-16T13:11:21.448Z,17.36
2023-03-16T13:12:21.485Z,17.33
2023-03-16T13:13:21.459Z,17.32
2023-03-16T13:16:21.507Z,17.31
2023-03-16T13:17:21.473Z,17.27
2023-03-16T13:18:21.456Z,17.19
2023-03-16T13:19:21.464Z,17.08
2023-03-16T13:20:30.314Z,17.05
2023-03-16T13:21:21.461Z,17.03
2023-03-16T13:23:21.511Z,17.06
2023-03-16T13:24:21.449Z,17.14
2023-03-16T13:25:21.440Z,17.19
2023-03-16T13:26:21.443Z,17.23
2023-03-16T13:27:21.476Z,17.07
2023-03-16T13:28:21.471Z,17.01
2023-03-16T13:29:21.499Z,17.05
2023-03-16T13:30:21.586Z,17.11
2023-03-16T13:31:21.526Z,17.12
2023-03-16T13:32:21.486Z,17.02
2023-03-16T13:33:21.498Z,17.00
2023-03-16T13:34:21.696Z,17.02
2023-03-16T13:35:21.508Z,16.98
2023-03-16T13:36:21.468Z,16.96
2023-03-16T13:38:21.524Z,16.99
2023-03-16T13:39:21.506Z,17.01
2023-03-16T13:40:21.575Z,17.05
2023-03-16T13:41:21.488Z,17.15
2023-03-16T13:42:21.502Z,17.18
2023-03-16T13:43:21.491Z,17.22
2023-03-16T13:44:21.547Z,17.27
2023-03-16T13:45:21.533Z,17.32
2023-03-16T13:46:21.573Z,17.35
2023-03-16T13:47:21.506Z,17.37
2023-03-16T13:48:21.545Z,17.36
2023-03-16T13:49:21.505Z,17.35
2023-03-16T13:50:21.536Z,17.36
2023-03-16T13:51:21.550Z,17.33
2023-03-16T13:52:21.576Z,17.27
2023-03-16T13:53:21.548Z,17.23
2023-03-16T13:54:21.564Z,17.19
2023-03-16T13:55:21.560Z,17.15
2023-03-16T13:56:21.538Z,17.16
2023-03-16T13:57:21.518Z,17.08
2023-03-16T13:58:21.589Z,17.05
2023-03-16T13:59:21.581Z,17.08
2023-03-16T14:00:21.599Z,17.09
2023-03-16T14:01:21.720Z,17.16
2023-03-16T14:02:21.716Z,17.20
2023-03-16T14:03:21.604Z,17.00
2023-03-16T14:04:21.556Z,16.85
2023-03-16T14:05:21.582Z,16.77
2023-03-16T14:06:21.579Z,16.68
2023-03-16T14:07:21.594Z,16.64
2023-03-16T14:08:21.633Z,16.63
2023-03-16T14:09:21.625Z,16.66
2023-03-16T14:10:21.605Z,16.68
2023-03-16T14:11:21.579Z,16.70
2023-03-16T14:12:21.559Z,16.77
2023-03-16T14:13:21.567Z,16.79
2023-03-16T14:14:21.609Z,16.81
2023-03-16T14:15:21.589Z,16.80
2023-03-16T14:16:21.700Z,16.78
2023-03-16T14:17:21.586Z,16.81
2023-03-16T14:18:21.739Z,16.88
2023-03-16T14:19:42.306Z,16.94
2023-03-16T14:20:21.578Z,17.01
2023-03-16T14:21:21.617Z,17.08
2023-03-16T14:22:21.574Z,17.14
2023-03-16T14:23:21.628Z,16.90
2023-03-16T14:24:21.645Z,16.83
2023-03-16T14:25:21.645Z,16.80
2023-03-16T14:26:21.623Z,16.82
2023-03-16T14:27:21.653Z,16.89
2023-03-16T14:28:21.645Z,16.92
2023-03-16T14:29:21.700Z,16.93
2023-03-16T14:30:21.654Z,16.92
2023-03-16T14:31:21.719Z,16.90
2023-03-16T14:32:21.660Z,16.88
2023-03-16T14:33:21.686Z,16.92
2023-03-16T14:34:21.755Z,16.97
2023-03-16T14:35:21.671Z,17.03
2023-03-16T14:36:21.663Z,17.04
2023-03-16T14:37:21.676Z,17.06